Time;durP1;ratioP1;P1;durP2;ratioP2;P2;SDS_P1;SDS_P2;PMS_P1;PMS_P2;Temp;Humidity;BMP_temperature;BMP_pressure;BME280_temperature;BME280_humidity;BME280_pressure;Samples;Min_cycle;Max_cycle;Signal;HPM_P1;HPM_P2
2024/01/21 00:00:16;;;;;;;12.57;8.52;;;;;;;;;;1047870;28;20413;-65
2024/01/21 00:01:07;;;;;;;18.00;9.30;;;;;;;;;;1046300;28;20098;-66
2024/01/21 00:01:58;;;;;;;14.50;8.80;;;;;;;;;;1046526;28;20048;-65
2024/01/21 00:02:29;;;;;;;18.02;8.27;;;;;;;;;;1048491;28;20541;-65
2024/01/21 00:03:00;;;;;;;14.70;8.57;;;;;;;;;;1046639;28;20583;-65
2024/01/21 00:03:30;;;;;;;17.20;9.10;;;;;;;;;;1046543;28;20052;-65
2024/01/21 00:04:01;;;;;;;16.73;9.65;;;;;;;;;;1047534;28;20051;-65
2024/01/21 00:04:31;;;;;;;16.90;9.35;;;;;;;;;;1050865;28;20071;-65
2024/01/21 00:05:02;;;;;;;15.25;8.95;;;;;;;;;;1050942;28;20052;-65
2024/01/21 00:05:32;;;;;;;17.98;9.52;;;;;;;;;;1049490;28;20132;-65
2024/01/21 00:06:03;;;;;;;16.17;9.13;;;;;;;;;;1050711;28;20050;-65
2024/01/21 00:06:34;;;;;;;13.25;8.82;;;;;;;;;;1050301;28;20055;-65
2024/01/21 00:07:04;;;;;;;15.77;10.27;;;;;;;;;;1046045;28;20055;-65
2024/01/21 00:07:38;;;;;;;13.57;8.38;;;;;;;;;;1047378;28;20052;-65
2024/01/21 00:08:09;;;;;;;13.60;8.73;;;;;;;;;;1049416;28;20052;-65
2024/01/21 00:08:39;;;;;;;13.00;8.50;;;;;;;;;;1050549;28;20113;-66
2024/01/21 00:09:10;;;;;;;13.60;8.32;;;;;;;;;;1049913;28;20727;-65
2024/01/21 00:09:41;;;;;;;14.48;9.18;;;;;;;;;;1050529;28;20100;-66
2024/01/21 00:10:11;;;;;;;14.90;9.05;;;;;;;;;;1050342;28;20812;-65
2024/01/21 00:10:42;;;;;;;14.48;8.73;;;;;;;;;;1050798;28;20081;-65
2024/01/21 00:11:12;;;;;;;15.07;9.15;;;;;;;;;;1050849;28;20131;-66
2024/01/21 00:11:43;;;;;;;15.98;7.85;;;;;;;;;;1050712;28;20055;-65
2024/01/21 00:12:13;;;;;;;14.50;8.88;;;;;;;;;;1051059;28;20550;-65
2024/01/21 00:12:44;;;;;;;13.80;9.10;;;;;;;;;;1050371;28;20071;-65
2024/01/21 00:13:14;;;;;;;19.75;9.60;;;;;;;;;;1049898;28;20043;-65
2024/01/21 00:13:45;;;;;;;14.40;7.60;;;;;;;;;;1046341;28;20111;-65
2024/01/21 00:14:15;;;;;;;14.43;8.75;;;;;;;;;;1046939;28;20041;-65
2024/01/21 00:14:46;;;;;;;14.45;8.82;;;;;;;;;;1046439;28;20055;-65
2024/01/21 00:15:16;;;;;;;12.98;7.43;;;;;;;;;;1046683;28;20492;-65
2024/01/21 00:15:47;;;;;;;12.25;8.07;;;;;;;;;;1046372;28;20039;-65
2024/01/21 00:16:17;;;;;;;12.43;6.90;;;;;;;;;;1047013;28;20075;-65
2024/01/21 00:16:48;;;;;;;14.73;8.05;;;;;;;;;;1046415;28;20086;-65
2024/01/21 00:17:18;;;;;;;16.13;7.63;;;;;;;;;;1046862;28;20055;-65
2024/01/21 00:17:49;;;;;;;14.25;7.47;;;;;;;;;;1046980;28;20040;-65
2024/01/21 00:18:20;;;;;;;13.57;7.10;;;;;;;;;;1046276;28;20044;-65
2024/01/21 00:18:50;;;;;;;11.27;7.13;;;;;;;;;;1046334;28;20044;-65
2024/01/21 00:19:20;;;;;;;10.07;6.70;;;;;;;;;;1049490;28;20496;-65
2024/01/21 00:19:51;;;;;;;10.60;6.15;;;;;;;;;;1050730;28;20052;-66
2024/01/21 00:20:21;;;;;;;11.65;6.63;;;;;;;;;;1050881;28;20467;-65
2024/01/21 00:20:52;;;;;;;10.82;6.70;;;;;;;;;;1050797;28;20047;-65
2024/01/21 00:21:23;;;;;;;13.00;6.47;;;;;;;;;;1049991;28;20044;-65
2024/01/21 00:21:53;;;;;;;12.77;6.47;;;;;;;;;;1049678;28;20062;-66
2024/01/21 00:22:24;;;;;;;9.70;5.60;;;;;;;;;;1051512;28;20159;-65
2024/01/21 00:22:54;;;;;;;12.25;5.53;;;;;;;;;;1050264;28;20098;-65
2024/01/21 00:23:25;;;;;;;10.35;5.32;;;;;;;;;;1051337;28;20120;-65
2024/01/21 00:23:55;;;;;;;8.05;5.28;;;;;;;;;;1049507;28;20468;-65
2024/01/21 00:24:26;;;;;;;12.05;5.53;;;;;;;;;;1046863;28;20109;-65
2024/01/21 00:24:57;;;;;;;8.02;5.10;;;;;;;;;;1049264;28;20051;-65
2024/01/21 00:25:27;;;;;;;9.38;4.97;;;;;;;;;;1051017;28;20097;-65
2024/01/21 00:25:58;;;;;;;8.02;4.95;;;;;;;;;;1050772;28;20055;-65
2024/01/21 00:26:29;;;;;;;12.48;5.00;;;;;;;;;;1049067;28;20050;-65
2024/01/21 00:26:59;;;;;;;8.38;4.25;;;;;;;;;;1049531;28;20052;-65
2024/01/21 00:27:30;;;;;;;9.98;4.85;;;;;;;;;;1048240;28;20048;-65
2024/01/21 00:28:00;;;;;;;7.70;4.80;;;;;;;;;;1046282;28;20498;-65
2024/01/21 00:28:31;;;;;;;9.15;4.28;;;;;;;;;;1046784;28;20055;-65
2024/01/21 00:29:02;;;;;;;9.70;4.78;;;;;;;;;;1046506;28;20141;-65
2024/01/21 00:29:32;;;;;;;8.20;4.30;;;;;;;;;;1046724;28;20040;-65
2024/01/21 00:30:04;;;;;;;9.35;4.55;;;;;;;;;;1046495;28;20071;-65
2024/01/21 00:30:34;;;;;;;6.25;4.60;;;;;;;;;;1049606;28;20047;-65
2024/01/21 00:31:05;;;;;;;7.43;4.15;;;;;;;;;;1050238;28;20090;-65
2024/01/21 00:31:36;;;;;;;10.07;4.72;;;;;;;;;;1051062;28;20105;-65
2024/01/21 00:32:06;;;;;;;8.23;4.90;;;;;;;;;;1046804;28;20139;-65
2024/01/21 00:32:37;;;;;;;6.57;3.92;;;;;;;;;;1050815;28;20059;-65
2024/01/21 00:33:07;;;;;;;9.38;4.45;;;;;;;;;;1050581;28;20830;-65
2024/01/21 00:33:38;;;;;;;6.20;3.63;;;;;;;;;;1050654;28;20048;-66
2024/01/21 00:34:08;;;;;;;6.85;4.28;;;;;;;;;;1050598;28;20047;-65
2024/01/21 00:34:39;;;;;;;8.73;4.07;;;;;;;;;;1048157;28;20036;-65
2024/01/21 00:35:09;;;;;;;7.10;4.00;;;;;;;;;;1050295;28;20097;-65
2024/01/21 00:35:40;;;;;;;9.48;4.13;;;;;;;;;;1050946;28;20519;-65
2024/01/21 00:36:11;;;;;;;8.38;4.05;;;;;;;;;;1046863;28;20045;-65
2024/01/21 00:36:41;;;;;;;7.75;4.35;;;;;;;;;;1046171;28;20045;-65
2024/01/21 00:37:12;;;;;;;10.30;4.05;;;;;;;;;;1047036;28;20917;-65
2024/01/21 00:37:43;;;;;;;9.10;4.00;;;;;;;;;;1048088;28;20044;-65
2024/01/21 00:38:13;;;;;;;9.32;4.43;;;;;;;;;;1046817;28;20060;-65
2024/01/21 00:38:43;;;;;;;9.35;4.10;;;;;;;;;;1046542;28;20057;-65
2024/01/21 00:39:14;;;;;;;8.50;4.47;;;;;;;;;;1046669;28;20036;-65
2024/01/21 00:39:45;;;;;;;10.85;4.55;;;;;;;;;;1046384;28;20048;-65
2024/01/21 00:40:15;;;;;;;7.50;3.70;;;;;;;;;;1048613;28;20044;-66
2024/01/21 00:40:46;;;;;;;8.85;3.72;;;;;;;;;;1047075;28;20074;-65
2024/01/21 00:41:17;;;;;;;7.88;3.70;;;;;;;;;;1047342;28;20050;-65
2024/01/21 00:41:47;;;;;;;8.65;3.65;;;;;;;;;;1046816;28;20056;-65
2024/01/21 00:42:18;;;;;;;7.55;4.00;;;;;;;;;;1050901;28;20032;-65
2024/01/21 00:42:48;;;;;;;8.20;3.60;;;;;;;;;;1046471;28;20113;-65
2024/01/21 00:43:19;;;;;;;8.88;4.00;;;;;;;;;;1046721;28;20039;-65
2024/01/21 00:43:49;;;;;;;5.85;3.10;;;;;;;;;;1046972;28;20133;-65
2024/01/21 00:44:20;;;;;;;8.60;3.85;;;;;;;;;;1048175;28;20059;-65
2024/01/21 00:44:50;;;;;;;8.10;4.03;;;;;;;;;;1046557;28;20425;-65
2024/01/21 00:45:21;;;;;;;10.32;4.47;;;;;;;;;;1049233;28;20048;-65
2024/01/21 00:45:53;;;;;;;12.23;3.80;;;;;;;;;;1049947;28;20455;-65
2024/01/21 00:46:23;;;;;;;7.70;4.47;;;;;;;;;;1047972;28;20057;-65
2024/01/21 00:46:54;;;;;;;7.80;3.75;;;;;;;;;;1045489;28;20075;-65
2024/01/21 00:47:24;;;;;;;9.95;3.55;;;;;;;;;;1045960;28;20765;-65
2024/01/21 00:47:55;;;;;;;7.75;3.42;;;;;;;;;;1048761;28;20043;-65
2024/01/21 00:48:25;;;;;;;10.23;3.80;;;;;;;;;;1050596;28;20036;-65
2024/01/21 00:48:57;;;;;;;7.05;3.50;;;;;;;;;;1050514;28;20040;-65
2024/01/21 00:49:29;;;;;;;8.75;4.38;;;;;;;;;;1047875;28;20060;-65
2024/01/21 00:50:00;;;;;;;6.82;4.05;;;;;;;;;;1046557;28;20048;-65
2024/01/21 00:50:31;;;;;;;11.70;4.20;;;;;;;;;;1048154;28;20048;-65
2024/01/21 00:51:01;;;;;;;8.27;3.63;;;;;;;;;;1050717;28;20500;-65
2024/01/21 00:51:32;;;;;;;6.15;3.30;;;;;;;;;;1051127;28;20044;-65
2024/01/21 00:52:02;;;;;;;8.15;3.92;;;;;;;;;;1046465;28;20385;-65
2024/01/21 00:52:33;;;;;;;8.38;4.45;;;;;;;;;;1046877;28;20050;-65
2024/01/21 00:53:03;;;;;;;8.63;3.88;;;;;;;;;;1046707;28;20048;-65
2024/01/21 00:53:34;;;;;;;6.95;3.88;;;;;;;;;;1050420;28;20146;-65
2024/01/21 00:54:04;;;;;;;10.45;4.30;;;;;;;;;;1050522;28;20086;-65
2024/01/21 00:54:35;;;;;;;9.00;3.90;;;;;;;;;;1050637;28;20048;-65
2024/01/21 00:55:06;;;;;;;7.90;4.10;;;;;;;;;;1047371;28;20463;-65
2024/01/21 00:55:37;;;;;;;7.07;3.85;;;;;;;;;;1046819;28;20443;-65
2024/01/21 00:56:07;;;;;;;6.63;4.00;;;;;;;;;;1046265;28;20055;-65
2024/01/21 00:56:38;;;;;;;11.07;3.70;;;;;;;;;;1047017;28;20045;-65
2024/01/21 00:57:08;;;;;;;10.25;4.10;;;;;;;;;;1047515;28;20135;-65
2024/01/21 00:57:39;;;;;;;9.50;4.03;;;;;;;;;;1046605;28;20447;-65
2024/01/21 00:58:09;;;;;;;8.50;4.00;;;;;;;;;;1046962;28;20041;-66
2024/01/21 00:58:40;;;;;;;8.45;4.25;;;;;;;;;;1046032;28;20055;-65
2024/01/21 00:59:10;;;;;;;11.77;5.60;;;;;;;;;;1046387;28;20435;-65
2024/01/21 00:59:42;;;;;;;7.40;4.45;;;;;;;;;;1046007;28;20174;-65
2024/01/21 01:00:13;;;;;;;8.32;4.22;;;;;;;;;;1046460;28;20097;-65
2024/01/21 01:00:44;;;;;;;8.30;3.75;;;;;;;;;;1049457;28;20056;-66
2024/01/21 01:01:15;;;;;;;8.25;4.22;;;;;;;;;;1049343;28;20059;-65
2024/01/21 01:01:45;;;;;;;9.65;4.75;;;;;;;;;;1046440;28;20119;-65
2024/01/21 01:02:16;;;;;;;8.70;4.93;;;;;;;;;;1046636;28;20044;-65
2024/01/21 01:02:46;;;;;;;9.15;4.63;;;;;;;;;;1046808;28;20040;-65
2024/01/21 01:03:17;;;;;;;10.98;4.65;;;;;;;;;;1046109;28;20075;-65
2024/01/21 01:03:47;;;;;;;10.38;5.07;;;;;;;;;;1046086;28;20040;-65
2024/01/21 01:04:18;;;;;;;10.27;5.18;;;;;;;;;;1046384;28;20044;-65
2024/01/21 01:04:48;;;;;;;11.02;5.53;;;;;;;;;;1046222;28;20048;-65
2024/01/21 01:05:19;;;;;;;9.65;5.05;;;;;;;;;;1046596;28;20048;-66
2024/01/21 01:05:50;;;;;;;14.00;5.88;;;;;;;;;;1047942;28;20102;-66
2024/01/21 01:06:20;;;;;;;10.68;5.93;;;;;;;;;;1046708;28;20643;-66
2024/01/21 01:06:51;;;;;;;12.35;5.90;;;;;;;;;;1050446;28;20484;-65
2024/01/21 01:07:21;;;;;;;14.40;7.57;;;;;;;;;;1050715;28;20078;-65
2024/01/21 01:07:52;;;;;;;12.38;7.47;;;;;;;;;;1049471;28;20198;-65
2024/01/21 01:08:22;;;;;;;13.95;7.57;;;;;;;;;;1046835;28;20060;-65
2024/01/21 01:08:53;;;;;;;11.82;7.13;;;;;;;;;;1045984;28;20044;-65
2024/01/21 01:09:23;;;;;;;9.60;6.95;;;;;;;;;;1047101;28;20060;-66
2024/01/21 01:09:54;;;;;;;11.90;7.60;;;;;;;;;;1048057;28;20102;-65
2024/01/21 01:10:24;;;;;;;15.43;8.18;;;;;;;;;;1051116;28;20403;-65
2024/01/21 01:10:55;;;;;;;16.23;7.65;;;;;;;;;;1047763;28;20059;-65
2024/01/21 01:11:27;;;;;;;14.48;7.22;;;;;;;;;;1047153;28;20090;-65
2024/01/21 01:11:58;;;;;;;16.60;8.18;;;;;;;;;;1049517;28;20048;-65
2024/01/21 01:12:28;;;;;;;16.10;7.97;;;;;;;;;;1050606;28;20662;-65
2024/01/21 01:12:59;;;;;;;14.15;8.00;;;;;;;;;;1050564;28;20055;-65
2024/01/21 01:13:29;;;;;;;16.40;9.00;;;;;;;;;;1049619;28;20193;-65
2024/01/21 01:13:59;;;;;;;15.30;8.80;;;;;;;;;;1050038;28;20040;-65
2024/01/21 01:14:30;;;;;;;14.68;8.40;;;;;;;;;;1050817;28;20108;-65
2024/01/21 01:15:01;;;;;;;22.08;9.43;;;;;;;;;;1050631;28;20050;-65
2024/01/21 01:15:32;;;;;;;16.55;8.68;;;;;;;;;;1050491;28;20051;-66
2024/01/21 01:16:02;;;;;;;15.20;8.45;;;;;;;;;;1050398;28;20063;-65
2024/01/21 01:16:39;;;;;;;16.17;9.38;;;;;;;;;;1047277;28;21553;-66
2024/01/21 01:17:12;;;;;;;15.38;8.57;;;;;;;;;;1049953;28;20134;-65
2024/01/21 01:17:42;;;;;;;15.95;9.80;;;;;;;;;;1050451;28;20484;-65
2024/01/21 01:18:14;;;;;;;17.02;9.05;;;;;;;;;;1049959;28;20512;-65
2024/01/21 01:18:44;;;;;;;15.80;8.88;;;;;;;;;;1049271;28;20119;-65
2024/01/21 01:19:15;;;;;;;16.80;9.10;;;;;;;;;;1046385;28;20044;-65
2024/01/21 01:19:45;;;;;;;17.80;8.68;;;;;;;;;;1046286;28;20060;-65
2024/01/21 01:20:16;;;;;;;13.43;8.15;;;;;;;;;;1046704;28;20059;-65
2024/01/21 01:20:46;;;;;;;16.70;9.65;;;;;;;;;;1046590;28;20511;-65
2024/01/21 01:21:17;;;;;;;13.93;9.00;;;;;;;;;;1047192;28;20424;-65
2024/01/21 01:21:47;;;;;;;14.55;8.38;;;;;;;;;;1050117;28;20048;-65
2024/01/21 01:22:18;;;;;;;14.90;8.98;;;;;;;;;;1048237;28;20158;-65
2024/01/21 01:22:49;;;;;;;18.27;9.45;;;;;;;;;;1048850;28;22312;-65
2024/01/21 01:23:19;;;;;;;15.57;8.43;;;;;;;;;;1050777;28;20064;-65
2024/01/21 01:23:50;;;;;;;15.23;9.05;;;;;;;;;;1048605;28;20128;-65
2024/01/21 01:24:21;;;;;;;17.00;8.68;;;;;;;;;;1050488;28;20694;-65
2024/01/21 01:24:51;;;;;;;14.20;8.75;;;;;;;;;;1046877;28;20044;-65
2024/01/21 01:25:22;;;;;;;15.80;8.35;;;;;;;;;;1047136;28;20053;-65
2024/01/21 01:25:52;;;;;;;15.15;8.93;;;;;;;;;;1045909;28;20037;-65
2024/01/21 01:26:23;;;;;;;16.13;8.45;;;;;;;;;;1048185;28;20056;-65
2024/01/21 01:26:53;;;;;;;14.60;8.52;;;;;;;;;;1046549;28;20128;-65
2024/01/21 01:27:24;;;;;;;14.93;8.52;;;;;;;;;;1046488;28;20052;-65
2024/01/21 01:27:55;;;;;;;15.43;8.32;;;;;;;;;;1046499;28;20079;-66
2024/01/21 01:28:25;;;;;;;13.18;7.75;;;;;;;;;;1046293;28;20071;-65
2024/01/21 01:28:56;;;;;;;17.38;8.52;;;;;;;;;;1046398;28;20131;-65
2024/01/21 01:29:27;;;;;;;17.30;8.63;;;;;;;;;;1046571;28;20044;-65
2024/01/21 01:29:57;;;;;;;15.05;8.68;;;;;;;;;;1046598;28;20512;-65
2024/01/21 01:30:28;;;;;;;17.08;8.80;;;;;;;;;;1046407;28;20059;-66
2024/01/21 01:30:58;;;;;;;14.98;7.90;;;;;;;;;;1046698;28;20098;-65
2024/01/21 01:31:29;;;;;;;15.25;8.35;;;;;;;;;;1046242;28;20078;-66
2024/01/21 01:31:59;;;;;;;13.25;7.95;;;;;;;;;;1046636;28;20055;-65
2024/01/21 01:32:30;;;;;;;13.15;7.90;;;;;;;;;;1046795;28;20040;-65
2024/01/21 01:33:00;;;;;;;12.77;7.45;;;;;;;;;;1046105;28;20193;-65
2024/01/21 01:33:31;;;;;;;12.95;7.88;;;;;;;;;;1046997;28;20123;-65
2024/01/21 01:34:02;;;;;;;10.30;6.18;;;;;;;;;;1046140;28;20040;-65
2024/01/21 01:34:32;;;;;;;13.15;7.28;;;;;;;;;;1050058;28;20066;-65
2024/01/21 01:35:05;;;;;;;11.50;5.88;;;;;;;;;;1048185;28;20064;-65
2024/01/21 01:35:35;;;;;;;13.23;6.15;;;;;;;;;;1046845;28;20052;-65
2024/01/21 01:36:07;;;;;;;13.38;6.57;;;;;;;;;;1045967;28;20064;-65
2024/01/21 01:36:37;;;;;;;11.75;5.90;;;;;;;;;;1047050;28;20135;-66
2024/01/21 01:37:11;;;;;;;10.90;6.35;;;;;;;;;;1048497;28;20178;-65
2024/01/21 01:37:42;;;;;;;12.90;5.93;;;;;;;;;;1049729;28;21601;-66
2024/01/21 01:38:13;;;;;;;16.13;6.38;;;;;;;;;;1046433;28;20441;-65
2024/01/21 01:38:44;;;;;;;13.00;6.30;;;;;;;;;;1046307;28;20520;-65
2024/01/21 01:39:14;;;;;;;14.40;6.57;;;;;;;;;;1047037;28;20064;-66
2024/01/21 01:39:45;;;;;;;11.13;6.30;;;;;;;;;;1049689;28;20054;-66
2024/01/21 01:40:19;;;;;;;11.50;6.22;;;;;;;;;;1049236;28;20075;-65
2024/01/21 01:40:50;;;;;;;9.93;6.55;;;;;;;;;;1049365;28;20109;-65
2024/01/21 01:41:20;;;;;;;10.88;6.00;;;;;;;;;;1050931;28;20109;-65
2024/01/21 01:41:51;;;;;;;11.30;6.20;;;;;;;;;;1050202;28;20063;-66
2024/01/21 01:42:21;;;;;;;11.27;6.28;;;;;;;;;;1050648;28;20134;-66
2024/01/21 01:42:56;;;;;;;13.23;6.68;;;;;;;;;;1049586;28;20093;-65
2024/01/21 01:43:26;;;;;;;13.43;6.20;;;;;;;;;;1050780;28;20452;-65
2024/01/21 01:43:57;;;;;;;11.98;5.85;;;;;;;;;;1047362;28;20412;-65
2024/01/21 01:44:28;;;;;;;17.00;6.60;;;;;;;;;;1046820;28;20044;-65
2024/01/21 01:44:59;;;;;;;7.78;6.07;;;;;;;;;;1046571;28;20056;-65
2024/01/21 01:45:30;;;;;;;10.98;6.38;;;;;;;;;;1046344;28;20048;-65
2024/01/21 01:46:00;;;;;;;12.65;6.70;;;;;;;;;;1046391;28;20056;-66
2024/01/21 01:46:31;;;;;;;11.20;6.50;;;;;;;;;;1046494;28;20171;-65
2024/01/21 01:47:01;;;;;;;12.88;6.22;;;;;;;;;;1046441;28;20159;-65
2024/01/21 01:47:33;;;;;;;10.32;6.30;;;;;;;;;;1046622;28;20155;-65
2024/01/21 01:48:04;;;;;;;11.50;6.28;;;;;;;;;;1046603;28;20095;-65
2024/01/21 01:48:35;;;;;;;10.77;5.82;;;;;;;;;;1046432;28;20086;-65
2024/01/21 01:49:05;;;;;;;13.15;6.65;;;;;;;;;;1046162;28;20109;-65
2024/01/21 01:49:38;;;;;;;11.10;6.22;;;;;;;;;;1046658;28;20049;-65
2024/01/21 01:50:09;;;;;;;8.63;6.07;;;;;;;;;;1050482;28;20162;-66
2024/01/21 01:50:39;;;;;;;12.93;5.80;;;;;;;;;;1050216;28;20162;-65
2024/01/21 01:51:10;;;;;;;12.43;6.88;;;;;;;;;;1050796;28;20216;-65
2024/01/21 01:51:41;;;;;;;13.05;5.82;;;;;;;;;;1049711;28;20420;-65
2024/01/21 01:52:15;;;;;;;15.52;6.40;;;;;;;;;;1048935;28;20139;-65
2024/01/21 01:52:45;;;;;;;12.13;6.25;;;;;;;;;;1046343;28;20171;-65
2024/01/21 01:53:16;;;;;;;10.82;5.43;;;;;;;;;;1046446;28;20051;-65
2024/01/21 01:53:47;;;;;;;8.75;5.55;;;;;;;;;;1046395;28;20060;-65
2024/01/21 01:54:18;;;;;;;8.35;6.30;;;;;;;;;;1046743;28;20660;-65
2024/01/21 01:54:49;;;;;;;8.90;5.60;;;;;;;;;;1050682;28;20056;-65
2024/01/21 01:55:19;;;;;;;12.07;6.50;;;;;;;;;;1049344;28;20057;-65
2024/01/21 01:55:50;;;;;;;13.65;6.45;;;;;;;;;;1046456;28;20431;-65
2024/01/21 01:56:22;;;;;;;10.77;5.80;;;;;;;;;;1046345;28;20047;-65
2024/01/21 01:56:52;;;;;;;11.95;6.55;;;;;;;;;;1049528;28;20093;-65
2024/01/21 01:57:23;;;;;;;11.63;6.30;;;;;;;;;;1050331;28;20056;-65
2024/01/21 01:57:54;;;;;;;9.48;6.13;;;;;;;;;;1046141;28;20132;-65
2024/01/21 01:58:27;;;;;;;10.25;6.43;;;;;;;;;;1047127;28;20036;-65
2024/01/21 01:59:03;;;;;;;16.27;6.03;;;;;;;;;;1046691;28;21279;-65
2024/01/21 01:59:34;;;;;;;9.23;5.30;;;;;;;;;;1047800;28;20061;-65
2024/01/21 02:00:08;;;;;;;8.43;5.32;;;;;;;;;;1047314;28;20058;-65
2024/01/21 02:00:39;;;;;;;10.13;5.03;;;;;;;;;;1051521;28;20075;-65
2024/01/21 02:01:10;;;;;;;8.85;5.55;;;;;;;;;;1051109;28;20036;-65
2024/01/21 02:01:41;;;;;;;11.50;5.25;;;;;;;;;;1051492;28;20052;-65
2024/01/21 02:02:11;;;;;;;10.50;5.60;;;;;;;;;;1051384;28;20139;-65
2024/01/21 02:02:42;;;;;;;11.70;5.57;;;;;;;;;;1051402;28;20047;-65
2024/01/21 02:03:13;;;;;;;11.57;6.32;;;;;;;;;;1051428;28;20494;-65
2024/01/21 02:03:45;;;;;;;8.18;4.57;;;;;;;;;;1051387;28;20062;-65
2024/01/21 02:04:15;;;;;;;8.30;4.95;;;;;;;;;;1051322;28;20079;-65
2024/01/21 02:04:47;;;;;;;11.15;6.22;;;;;;;;;;1051439;28;20056;-65
2024/01/21 02:05:17;;;;;;;9.07;4.43;;;;;;;;;;1051496;28;20052;-65
2024/01/21 02:05:48;;;;;;;12.70;5.70;;;;;;;;;;1051295;28;20085;-65
2024/01/21 02:06:19;;;;;;;11.10;5.57;;;;;;;;;;1052023;28;20056;-65
2024/01/21 02:06:49;;;;;;;15.00;5.07;;;;;;;;;;1050854;28;20130;-65
2024/01/21 02:07:20;;;;;;;8.88;4.75;;;;;;;;;;1051782;28;20397;-65
2024/01/21 02:07:50;;;;;;;12.07;5.68;;;;;;;;;;1050670;28;20059;-65
2024/01/21 02:08:21;;;;;;;12.00;5.38;;;;;;;;;;1050723;28;20131;-65
2024/01/21 02:08:51;;;;;;;8.77;4.47;;;;;;;;;;1047129;28;20734;-65
2024/01/21 02:09:22;;;;;;;13.30;4.72;;;;;;;;;;1049373;28;20122;-65
2024/01/21 02:09:52;;;;;;;6.90;4.88;;;;;;;;;;1050493;28;20857;-65
2024/01/21 02:10:23;;;;;;;10.95;5.18;;;;;;;;;;1051299;28;20052;-65
2024/01/21 02:10:54;;;;;;;12.40;4.97;;;;;;;;;;1046682;28;20060;-65
2024/01/21 02:11:24;;;;;;;13.18;4.57;;;;;;;;;;1050678;28;20174;-65
2024/01/21 02:11:55;;;;;;;14.80;5.22;;;;;;;;;;1050539;28;20043;-65
2024/01/21 02:12:25;;;;;;;8.07;4.63;;;;;;;;;;1050314;28;20131;-65
2024/01/21 02:12:56;;;;;;;12.18;4.57;;;;;;;;;;1051286;28;20518;-65
2024/01/21 02:13:30;;;;;;;11.07;5.47;;;;;;;;;;1051182;28;20071;-65
2024/01/21 02:14:00;;;;;;;12.10;4.68;;;;;;;;;;1051078;28;20063;-63
2024/01/21 02:14:31;;;;;;;9.98;4.88;;;;;;;;;;1051160;28;20048;-65
2024/01/21 02:15:02;;;;;;;11.57;4.55;;;;;;;;;;1049454;28;20052;-65
2024/01/21 02:15:33;;;;;;;12.95;4.25;;;;;;;;;;1048865;28;20052;-65
2024/01/21 02:16:03;;;;;;;9.25;4.13;;;;;;;;;;1050181;28;20109;-64
2024/01/21 02:16:34;;;;;;;7.70;4.53;;;;;;;;;;1051392;28;20085;-65
2024/01/21 02:17:05;;;;;;;9.98;4.18;;;;;;;;;;1048392;28;20447;-65
2024/01/21 02:17:35;;;;;;;9.85;4.28;;;;;;;;;;1049229;28;20044;-65
2024/01/21 02:18:06;;;;;;;9.73;4.20;;;;;;;;;;1046914;28;20062;-65
2024/01/21 02:18:38;;;;;;;7.07;4.07;;;;;;;;;;1047624;28;20123;-65
2024/01/21 02:19:26;;;;;;;9.93;4.55;;;;;;;;;;1046660;28;20071;-65
2024/01/21 02:19:56;;;;;;;9.88;4.28;;;;;;;;;;1047255;28;20046;-65
2024/01/21 02:20:27;;;;;;;6.57;4.00;;;;;;;;;;1046880;28;20215;-66
2024/01/21 02:20:57;;;;;;;11.98;3.85;;;;;;;;;;1050792;28;20440;-66
2024/01/21 02:21:28;;;;;;;8.13;4.20;;;;;;;;;;1047358;28;20586;-65
2024/01/21 02:21:58;;;;;;;8.27;4.07;;;;;;;;;;1046901;28;20122;-65
2024/01/21 02:22:30;;;;;;;8.18;4.45;;;;;;;;;;1047577;28;20453;-65
2024/01/21 02:23:06;;;;;;;8.27;4.43;;;;;;;;;;1046609;28;20055;-65
2024/01/21 02:23:37;;;;;;;8.55;4.18;;;;;;;;;;1047619;28;20147;-65
2024/01/21 02:24:08;;;;;;;8.27;4.05;;;;;;;;;;1046589;28;21324;-65
2024/01/21 02:24:38;;;;;;;9.20;4.18;;;;;;;;;;1047622;28;20076;-65
2024/01/21 02:25:09;;;;;;;4.70;3.45;;;;;;;;;;1051376;28;20521;-65
2024/01/21 02:25:40;;;;;;;11.10;4.90;;;;;;;;;;1048750;28;20886;-65
2024/01/21 02:26:10;;;;;;;8.38;3.67;;;;;;;;;;1049461;28;20400;-64
2024/01/21 02:26:41;;;;;;;15.15;4.63;;;;;;;;;;1047326;28;20076;-65
2024/01/21 02:27:11;;;;;;;9.85;4.18;;;;;;;;;;1047488;28;20051;-65
2024/01/21 02:27:42;;;;;;;7.65;3.47;;;;;;;;;;1046660;28;20045;-65
2024/01/21 02:28:12;;;;;;;8.85;4.40;;;;;;;;;;1047669;28;20044;-65
2024/01/21 02:28:43;;;;;;;13.02;4.10;;;;;;;;;;1050132;28;20060;-65
2024/01/21 02:29:14;;;;;;;10.15;4.15;;;;;;;;;;1051812;28;20150;-65
2024/01/21 02:29:44;;;;;;;9.93;4.38;;;;;;;;;;1050660;28;20052;-65
2024/01/21 02:30:15;;;;;;;11.10;4.05;;;;;;;;;;1051598;28;20167;-65
2024/01/21 02:30:45;;;;;;;6.60;3.67;;;;;;;;;;1046507;28;20075;-65
2024/01/21 02:31:16;;;;;;;12.63;3.95;;;;;;;;;;1047583;28;20033;-65
2024/01/21 02:31:47;;;;;;;9.75;4.35;;;;;;;;;;1046792;28;20461;-65
2024/01/21 02:32:17;;;;;;;7.88;3.25;;;;;;;;;;1047472;28;20051;-65
2024/01/21 02:32:48;;;;;;;8.38;3.92;;;;;;;;;;1046560;28;20401;-65
2024/01/21 02:33:18;;;;;;;12.68;3.88;;;;;;;;;;1047453;28;20064;-65
2024/01/21 02:33:49;;;;;;;5.95;3.83;;;;;;;;;;1046766;28;20405;-65
2024/01/21 02:34:20;;;;;;;8.82;4.47;;;;;;;;;;1049828;28;20131;-65
2024/01/21 02:34:50;;;;;;;10.05;4.15;;;;;;;;;;1050576;28;20059;-65
2024/01/21 02:35:21;;;;;;;10.55;4.78;;;;;;;;;;1051817;28;20051;-65
2024/01/21 02:35:52;;;;;;;12.35;4.18;;;;;;;;;;1050790;28;20097;-65
2024/01/21 02:36:22;;;;;;;9.52;4.25;;;;;;;;;;1050287;28;20097;-65
2024/01/21 02:36:53;;;;;;;6.53;3.83;;;;;;;;;;1050610;28;20726;-65
2024/01/21 02:37:23;;;;;;;7.30;3.63;;;;;;;;;;1047604;28;20086;-64
2024/01/21 02:37:53;;;;;;;12.45;4.45;;;;;;;;;;1046908;28;20055;-65
2024/01/21 02:38:24;;;;;;;7.57;3.38;;;;;;;;;;1048891;28;20158;-65
2024/01/21 02:38:55;;;;;;;10.93;4.00;;;;;;;;;;1051276;28;20750;-65
2024/01/21 02:39:25;;;;;;;7.18;3.97;;;;;;;;;;1051215;28;20491;-65
2024/01/21 02:39:56;;;;;;;10.25;4.00;;;;;;;;;;1051476;28;20094;-65
2024/01/21 02:40:27;;;;;;;9.48;3.95;;;;;;;;;;1048684;28;20040;-65
2024/01/21 02:40:57;;;;;;;12.57;6.18;;;;;;;;;;1048850;28;20076;-65
2024/01/21 02:41:28;;;;;;;14.55;5.10;;;;;;;;;;1048292;28;20351;-65
2024/01/21 02:41:58;;;;;;;9.75;4.55;;;;;;;;;;1047024;28;20132;-65
2024/01/21 02:42:29;;;;;;;8.73;4.53;;;;;;;;;;1047197;28;20055;-65
2024/01/21 02:43:00;;;;;;;11.40;4.30;;;;;;;;;;1048446;28;20054;-65
2024/01/21 02:43:30;;;;;;;8.23;4.57;;;;;;;;;;1049508;28;20047;-65
2024/01/21 02:44:01;;;;;;;7.40;3.92;;;;;;;;;;1048278;28;20045;-65
2024/01/21 02:44:31;;;;;;;11.15;4.32;;;;;;;;;;1047027;28;20076;-65
2024/01/21 02:45:02;;;;;;;10.50;4.50;;;;;;;;;;1046997;28;20126;-65
2024/01/21 02:45:34;;;;;;;6.22;3.65;;;;;;;;;;1047537;28;20666;-65
2024/01/21 02:46:05;;;;;;;12.15;4.90;;;;;;;;;;1046419;28;20048;-65
2024/01/21 02:46:36;;;;;;;11.57;3.85;;;;;;;;;;1047582;28;20059;-65
2024/01/21 02:47:06;;;;;;;9.52;4.53;;;;;;;;;;1046529;28;20131;-65
2024/01/21 02:47:37;;;;;;;11.23;4.93;;;;;;;;;;1047639;28;20070;-65
2024/01/21 02:48:07;;;;;;;10.82;4.57;;;;;;;;;;1046618;28;20067;-65
2024/01/21 02:48:38;;;;;;;5.75;3.55;;;;;;;;;;1047806;28;20041;-65
2024/01/21 02:49:08;;;;;;;8.70;4.22;;;;;;;;;;1049981;28;20067;-65
2024/01/21 02:49:39;;;;;;;7.60;4.28;;;;;;;;;;1050362;28;20040;-65
2024/01/21 02:50:09;;;;;;;8.20;4.10;;;;;;;;;;1051513;28;20051;-65
2024/01/21 02:50:40;;;;;;;10.57;3.92;;;;;;;;;;1050592;28;20056;-65
2024/01/21 02:51:14;;;;;;;6.03;4.03;;;;;;;;;;1047474;28;20174;-65
2024/01/21 02:51:44;;;;;;;7.75;4.22;;;;;;;;;;1047161;28;20483;-65
2024/01/21 02:52:15;;;;;;;11.38;3.80;;;;;;;;;;1047311;28;20474;-65
2024/01/21 02:52:45;;;;;;;10.93;4.50;;;;;;;;;;1046301;28;20044;-65
2024/01/21 02:53:16;;;;;;;8.13;4.47;;;;;;;;;;1047433;28;20052;-65
2024/01/21 02:53:47;;;;;;;6.75;3.72;;;;;;;;;;1046465;28;20052;-65
2024/01/21 02:54:17;;;;;;;10.52;4.22;;;;;;;;;;1047584;28;20052;-65
2024/01/21 02:54:47;;;;;;;10.00;4.18;;;;;;;;;;1047018;28;20469;-65
2024/01/21 02:55:18;;;;;;;11.02;4.18;;;;;;;;;;1046920;28;20048;-65
2024/01/21 02:55:49;;;;;;;13.02;5.05;;;;;;;;;;1047189;28;20079;-65
2024/01/21 02:56:28;;;;;;;6.93;4.00;;;;;;;;;;1046806;28;20048;-65
2024/01/21 02:56:59;;;;;;;11.50;3.88;;;;;;;;;;1050212;28;20050;-65
2024/01/21 02:57:30;;;;;;;7.72;4.00;;;;;;;;;;1050804;28;20051;-65
2024/01/21 02:58:01;;;;;;;8.68;3.80;;;;;;;;;;1051284;28;20089;-65
2024/01/21 02:58:31;;;;;;;7.53;3.50;;;;;;;;;;1051209;28;20057;-65
2024/01/21 02:59:02;;;;;;;9.50;4.15;;;;;;;;;;1050998;28;20064;-65
2024/01/21 02:59:32;;;;;;;11.77;3.70;;;;;;;;;;1050956;28;20044;-65
2024/01/21 03:00:04;;;;;;;7.28;3.70;;;;;;;;;;1050979;28;20143;-65
2024/01/21 03:00:35;;;;;;;9.05;3.75;;;;;;;;;;1051665;28;20496;-65
2024/01/21 03:01:06;;;;;;;10.38;4.10;;;;;;;;;;1050543;28;20127;-65
2024/01/21 03:01:36;;;;;;;6.45;3.45;;;;;;;;;;1051833;28;20052;-65
2024/01/21 03:02:07;;;;;;;11.40;3.92;;;;;;;;;;1050305;28;20075;-65
2024/01/21 03:02:37;;;;;;;9.30;4.35;;;;;;;;;;1051698;28;20055;-65
2024/01/21 03:03:10;;;;;;;9.65;3.83;;;;;;;;;;1050800;28;20055;-65
2024/01/21 03:03:41;;;;;;;9.77;3.92;;;;;;;;;;1051127;28;20048;-65
2024/01/21 03:04:12;;;;;;;7.35;3.60;;;;;;;;;;1050974;28;20048;-65